Time;durP1;ratioP1;P1;durP2;ratioP2;P2;SDS_P1;SDS_P2;PMS_P1;PMS_P2;Temp;Humidity;BMP_temperature;BMP_pressure;BME280_temperature;BME280_humidity;BME280_pressure;Samples;Min_cycle;Max_cycle;Signal;HPM_P1;HPM_P2
2023/10/25 00:02:11;;;;;;;4.43;2.15;;;;;;;;;;5025970;28;20038;-78
2023/10/25 00:04:36;;;;;;;4.72;2.20;;;;;;;;;;5024669;28;20512;-77
2023/10/25 00:07:02;;;;;;;9.05;2.33;;;;;;;;;;5005566;28;20060;-78
2023/10/25 00:09:27;;;;;;;8.05;2.10;;;;;;;;;;5005689;28;20028;-77
2023/10/25 00:11:54;;;;;;;6.93;2.70;;;;;;;;;;5006545;28;20029;-78
2023/10/25 00:14:19;;;;;;;6.10;2.30;;;;;;;;;;5024490;28;20041;-78
2023/10/25 00:16:44;;;;;;;6.28;2.25;;;;;;;;;;5008018;28;20539;-78
2023/10/25 00:19:10;;;;;;;6.53;2.90;;;;;;;;;;5026025;28;20095;-78
2023/10/25 00:21:35;;;;;;;4.45;2.08;;;;;;;;;;5025986;28;20492;-77
2023/10/25 00:24:00;;;;;;;4.50;1.95;;;;;;;;;;5025160;28;20029;-78
2023/10/25 00:26:26;;;;;;;6.32;2.17;;;;;;;;;;5024333;28;20129;-78
2023/10/25 00:28:51;;;;;;;4.20;2.20;;;;;;;;;;5025466;28;20069;-78
2023/10/25 00:31:17;;;;;;;5.78;2.10;;;;;;;;;;5024117;28;20440;-78
2023/10/25 00:33:42;;;;;;;4.85;2.10;;;;;;;;;;5025535;28;20079;-78
2023/10/25 00:36:07;;;;;;;9.07;2.28;;;;;;;;;;5026377;28;20033;-78
2023/10/25 00:38:33;;;;;;;5.40;2.17;;;;;;;;;;5024842;28;20432;-78
2023/10/25 00:40:58;;;;;;;4.65;1.90;;;;;;;;;;5030132;28;20041;-78
2023/10/25 00:43:24;;;;;;;5.15;2.10;;;;;;;;;;5037848;28;20059;-77
2023/10/25 00:45:52;;;;;;;6.32;2.05;;;;;;;;;;5030903;28;20037;-78
2023/10/25 00:48:18;;;;;;;5.05;1.85;;;;;;;;;;5024293;28;20504;-78
2023/10/25 00:50:43;;;;;;;7.72;2.00;;;;;;;;;;5024674;28;20037;-78
2023/10/25 00:53:08;;;;;;;6.03;2.30;;;;;;;;;;5025132;28;20136;-78
2023/10/25 00:55:34;;;;;;;6.68;2.17;;;;;;;;;;5025288;28;20084;-78
2023/10/25 00:57:59;;;;;;;7.43;2.75;;;;;;;;;;5024743;28;20049;-78
2023/10/25 01:00:25;;;;;;;14.30;2.80;;;;;;;;;;5024875;28;20030;-78
2023/10/25 01:02:51;;;;;;;7.05;2.28;;;;;;;;;;5024917;28;20108;-78
2023/10/25 01:05:16;;;;;;;9.23;3.42;;;;;;;;;;5025287;28;20045;-78
2023/10/25 01:07:42;;;;;;;11.68;3.47;;;;;;;;;;5023103;28;20079;-78
2023/10/25 01:10:08;;;;;;;11.43;4.05;;;;;;;;;;5024962;28;20564;-78
2023/10/25 01:12:33;;;;;;;9.23;3.92;;;;;;;;;;5022164;28;20459;-78
2023/10/25 01:14:58;;;;;;;14.48;4.35;;;;;;;;;;5025226;28;20508;-78
2023/10/25 01:17:24;;;;;;;10.38;3.58;;;;;;;;;;5024648;28;20046;-78
2023/10/25 01:19:49;;;;;;;10.02;3.90;;;;;;;;;;5024805;28;20033;-78
2023/10/25 01:22:14;;;;;;;12.55;3.58;;;;;;;;;;5023693;28;20618;-78
2023/10/25 01:24:40;;;;;;;7.75;2.83;;;;;;;;;;5025094;28;20033;-78
2023/10/25 01:27:05;;;;;;;8.27;2.53;;;;;;;;;;5024715;28;20037;-78
2023/10/25 01:29:31;;;;;;;3.75;1.60;;;;;;;;;;5024592;28;20037;-78
2023/10/25 01:31:56;;;;;;;5.53;1.55;;;;;;;;;;5006995;28;20136;-78
2023/10/25 01:34:22;;;;;;;3.78;1.60;;;;;;;;;;5023842;28;20402;-78
2023/10/25 01:36:47;;;;;;;2.45;1.30;;;;;;;;;;5024772;28;20491;-78
2023/10/25 01:39:12;;;;;;;4.07;1.55;;;;;;;;;;5006860;28;20017;-78
2023/10/25 01:41:38;;;;;;;2.22;1.58;;;;;;;;;;5023858;28;20048;-78
2023/10/25 01:44:03;;;;;;;1.80;1.20;;;;;;;;;;5024464;28;20700;-77
2023/10/25 01:46:30;;;;;;;3.10;1.50;;;;;;;;;;5024612;28;20273;-78
2023/10/25 01:48:55;;;;;;;4.28;1.23;;;;;;;;;;5004375;28;20512;-78
2023/10/25 01:51:20;;;;;;;5.13;1.30;;;;;;;;;;5004297;28;20057;-77
2023/10/25 01:53:46;;;;;;;6.65;1.23;;;;;;;;;;5005471;28;20617;-78
2023/10/25 01:56:11;;;;;;;1.60;1.10;;;;;;;;;;4987169;28;20042;-78
2023/10/25 01:58:37;;;;;;;2.58;1.33;;;;;;;;;;5017861;28;20042;-78
2023/10/25 02:01:06;;;;;;;4.10;1.60;;;;;;;;;;5029079;28;20033;-78
2023/10/25 02:03:31;;;;;;;4.88;1.30;;;;;;;;;;5036522;28;20056;-78
2023/10/25 02:05:57;;;;;;;1.90;1.45;;;;;;;;;;5039988;28;20025;-77
2023/10/25 02:08:22;;;;;;;4.88;1.63;;;;;;;;;;5027257;28;20068;-78
2023/10/25 02:10:47;;;;;;;7.65;1.50;;;;;;;;;;5025549;28;20465;-78
2023/10/25 02:13:13;;;;;;;1.50;1.23;;;;;;;;;;5016442;28;20061;-78
2023/10/25 02:15:38;;;;;;;1.75;1.30;;;;;;;;;;5024669;28;20089;-77
2023/10/25 02:18:03;;;;;;;3.75;1.40;;;;;;;;;;5024497;28;20095;-78
2023/10/25 02:20:29;;;;;;;2.75;1.40;;;;;;;;;;5005988;28;20045;-78
2023/10/25 02:22:54;;;;;;;1.23;1.10;;;;;;;;;;5006254;28;20040;-78
2023/10/25 02:25:20;;;;;;;2.15;1.33;;;;;;;;;;5024081;28;20042;-77
2023/10/25 02:27:45;;;;;;;4.70;1.73;;;;;;;;;;5024057;28;20516;-78
2023/10/25 02:30:11;;;;;;;8.05;1.67;;;;;;;;;;5004584;28;20057;-78
2023/10/25 02:32:36;;;;;;;4.07;1.65;;;;;;;;;;5004990;28;20069;-78
2023/10/25 02:35:01;;;;;;;2.30;1.50;;;;;;;;;;4990647;28;20112;-78
2023/10/25 02:37:27;;;;;;;2.17;1.40;;;;;;;;;;5007587;28;20092;-77
2023/10/25 02:39:52;;;;;;;4.50;1.40;;;;;;;;;;5008157;28;20038;-78
2023/10/25 02:42:17;;;;;;;4.03;1.50;;;;;;;;;;5008111;28;20500;-78
2023/10/25 02:44:43;;;;;;;8.75;1.70;;;;;;;;;;5007598;28;20038;-78
2023/10/25 02:47:08;;;;;;;2.83;1.40;;;;;;;;;;5007960;28;20030;-77
2023/10/25 02:49:34;;;;;;;4.05;1.35;;;;;;;;;;5007803;28;20057;-78
2023/10/25 02:51:59;;;;;;;3.28;1.23;;;;;;;;;;5007439;28;20092;-77
2023/10/25 02:54:24;;;;;;;5.00;1.40;;;;;;;;;;4990009;28;20026;-78
2023/10/25 02:56:50;;;;;;;2.28;1.23;;;;;;;;;;4990439;28;20022;-79
2023/10/25 02:59:15;;;;;;;4.03;1.30;;;;;;;;;;5023826;28;20604;-78
2023/10/25 03:01:41;;;;;;;2.00;1.17;;;;;;;;;;5027722;28;20560;-78
2023/10/25 03:04:06;;;;;;;3.38;1.20;;;;;;;;;;5027303;28;20053;-78
2023/10/25 03:06:31;;;;;;;3.00;1.35;;;;;;;;;;5026521;28;20615;-77
2023/10/25 03:08:57;;;;;;;3.28;1.30;;;;;;;;;;5027873;28;20572;-78
2023/10/25 03:11:22;;;;;;;1.80;1.13;;;;;;;;;;5025760;28;20145;-78
2023/10/25 03:13:48;;;;;;;5.18;1.25;;;;;;;;;;5027136;28;20041;-78
2023/10/25 03:16:13;;;;;;;1.08;0.98;;;;;;;;;;5008763;28;20029;-78
2023/10/25 03:18:39;;;;;;;4.03;1.38;;;;;;;;;;5027495;28;20034;-78
2023/10/25 03:21:04;;;;;;;2.05;1.30;;;;;;;;;;5011704;28;20029;-78
2023/10/25 03:23:30;;;;;;;2.50;1.40;;;;;;;;;;5036879;28;20595;-78
2023/10/25 03:26:01;;;;;;;3.88;1.25;;;;;;;;;;5039656;28;20598;-78
2023/10/25 03:28:27;;;;;;;2.90;1.38;;;;;;;;;;5027130;28;20133;-78
2023/10/25 03:30:52;;;;;;;2.15;1.27;;;;;;;;;;5025702;28;20826;-78
2023/10/25 03:33:17;;;;;;;2.58;1.30;;;;;;;;;;5027331;28;20026;-78
2023/10/25 03:35:51;;;;;;;1.60;1.10;;;;;;;;;;5026439;28;20060;-78
2023/10/25 03:38:16;;;;;;;2.85;1.30;;;;;;;;;;5026319;28;20738;-78
2023/10/25 03:40:41;;;;;;;2.25;1.10;;;;;;;;;;5008549;28;20030;-78
2023/10/25 03:43:07;;;;;;;3.03;1.27;;;;;;;;;;5026652;28;20029;-78
2023/10/25 03:45:33;;;;;;;3.95;1.58;;;;;;;;;;5025480;28;20052;-78
2023/10/25 03:47:58;;;;;;;2.75;1.40;;;;;;;;;;5009277;28;20107;-78
2023/10/25 03:50:24;;;;;;;4.57;1.42;;;;;;;;;;5008052;28;20064;-78
2023/10/25 03:52:50;;;;;;;4.32;1.30;;;;;;;;;;5026228;28;20044;-78
2023/10/25 03:55:15;;;;;;;2.25;1.35;;;;;;;;;;5025580;28;20037;-78
2023/10/25 03:57:41;;;;;;;1.50;1.15;;;;;;;;;;5026282;28;20045;-78
2023/10/25 04:00:07;;;;;;;3.90;1.58;;;;;;;;;;5026683;28;20040;-78
2023/10/25 04:02:32;;;;;;;4.95;1.98;;;;;;;;;;5025815;28;20034;-78
2023/10/25 04:04:57;;;;;;;4.90;1.35;;;;;;;;;;5025696;28;20040;-78
2023/10/25 04:07:23;;;;;;;2.15;1.15;;;;;;;;;;5025922;28;20681;-78
2023/10/25 04:09:48;;;;;;;6.00;1.55;;;;;;;;;;5025727;28;20033;-78
2023/10/25 04:12:13;;;;;;;2.05;1.25;;;;;;;;;;5026201;28;20729;-78
2023/10/25 04:14:45;;;;;;;3.50;1.38;;;;;;;;;;5026038;28;20409;-78
2023/10/25 04:17:11;;;;;;;1.50;1.13;;;;;;;;;;5008229;28;20042;-78
2023/10/25 04:19:37;;;;;;;2.47;1.48;;;;;;;;;;5025767;28;20040;-78
2023/10/25 04:22:03;;;;;;;3.30;1.48;;;;;;;;;;5025768;28;20169;-77
2023/10/25 04:24:28;;;;;;;3.03;1.50;;;;;;;;;;5025772;28;20487;-78
2023/10/25 04:26:54;;;;;;;1.67;1.20;;;;;;;;;;5008363;28;20028;-78
2023/10/25 04:29:19;;;;;;;5.75;1.70;;;;;;;;;;5007813;28;20036;-77
2023/10/25 04:31:44;;;;;;;2.13;1.50;;;;;;;;;;5025708;28;20030;-78
2023/10/25 04:34:10;;;;;;;3.97;1.60;;;;;;;;;;5025457;28;20052;-78
2023/10/25 04:36:35;;;;;;;2.80;1.63;;;;;;;;;;5008266;28;20033;-77
2023/10/25 04:39:00;;;;;;;6.80;2.22;;;;;;;;;;5021759;28;20576;-78
2023/10/25 04:41:26;;;;;;;3.65;1.55;;;;;;;;;;5027547;28;20064;-78
2023/10/25 04:43:51;;;;;;;2.55;1.52;;;;;;;;;;5034334;28;20068;-78
2023/10/25 04:46:17;;;;;;;2.95;1.65;;;;;;;;;;5042262;28;20070;-78
2023/10/25 04:48:42;;;;;;;1.88;1.40;;;;;;;;;;5032345;28;20413;-78
2023/10/25 04:51:12;;;;;;;3.10;0.90;;;;;;;;;;5027190;28;20028;-78
2023/10/25 04:53:38;;;;;;;3.15;1.45;;;;;;;;;;5026143;28;20421;-78
2023/10/25 04:56:04;;;;;;;3.47;1.58;;;;;;;;;;5007215;28;20037;-78
2023/10/25 04:58:30;;;;;;;2.63;1.45;;;;;;;;;;5024936;28;20099;-78
2023/10/25 05:00:55;;;;;;;5.72;1.55;;;;;;;;;;5023817;28;20503;-78
2023/10/25 05:03:20;;;;;;;2.05;1.52;;;;;;;;;;5023419;28;20389;-78
2023/10/25 05:05:46;;;;;;;5.05;1.80;;;;;;;;;;5026105;28;20068;-78
2023/10/25 05:08:12;;;;;;;3.15;1.58;;;;;;;;;;5024973;28;20045;-78
2023/10/25 05:10:38;;;;;;;2.63;1.20;;;;;;;;;;5024779;28;20033;-78
2023/10/25 05:13:04;;;;;;;3.75;1.40;;;;;;;;;;5018498;28;20033;-78
2023/10/25 05:15:29;;;;;;;3.13;1.60;;;;;;;;;;5006871;28;20021;-78
2023/10/25 05:17:56;;;;;;;3.65;1.33;;;;;;;;;;5005838;28;20029;-78
2023/10/25 05:20:21;;;;;;;3.42;1.35;;;;;;;;;;5004502;28;20073;-78
2023/10/25 05:22:51;;;;;;;2.97;1.50;;;;;;;;;;5004836;28;20037;-78
2023/10/25 05:25:18;;;;;;;2.00;1.27;;;;;;;;;;5004790;28;20022;-78
2023/10/25 05:27:43;;;;;;;2.55;1.42;;;;;;;;;;5004526;28;20037;-78
2023/10/25 05:30:09;;;;;;;3.83;1.40;;;;;;;;;;5005593;28;20026;-78
2023/10/25 05:32:36;;;;;;;3.83;1.77;;;;;;;;;;4987035;28;20030;-78
2023/10/25 05:35:05;;;;;;;3.35;1.52;;;;;;;;;;4986625;28;20042;-78
2023/10/25 05:37:31;;;;;;;3.15;1.67;;;;;;;;;;5004927;28;20092;-78
2023/10/25 05:39:57;;;;;;;3.45;1.45;;;;;;;;;;4994817;28;20069;-78
2023/10/25 05:42:27;;;;;;;3.83;1.65;;;;;;;;;;5022384;28;20052;-78
2023/10/25 05:44:54;;;;;;;3.30;1.73;;;;;;;;;;5024865;28;20025;-78
2023/10/25 05:47:21;;;;;;;2.92;1.35;;;;;;;;;;5024430;28;20044;-79
2023/10/25 05:49:47;;;;;;;18.75;8.43;;;;;;;;;;5024260;28;20025;-78
2023/10/25 05:52:14;;;;;;;7.78;2.65;;;;;;;;;;5006451;28;20037;-78
2023/10/25 05:54:40;;;;;;;3.05;1.95;;;;;;;;;;5024946;28;20033;-78
2023/10/25 05:57:06;;;;;;;2.00;1.63;;;;;;;;;;5024291;28;20132;-78
2023/10/25 05:59:32;;;;;;;1.80;1.23;;;;;;;;;;5024253;28;20037;-78
2023/10/25 06:02:12;;;;;;;5.60;1.98;;;;;;;;;;5025945;28;20030;-78
2023/10/25 06:04:39;;;;;;;3.53;1.60;;;;;;;;;;5031616;28;20047;-78
2023/10/25 06:07:13;;;;;;;5.72;1.50;;;;;;;;;;5018733;28;20033;-79
2023/10/25 06:09:39;;;;;;;2.42;1.52;;;;;;;;;;5013913;28;20029;-78
2023/10/25 06:12:05;;;;;;;7.22;1.90;;;;;;;;;;5028281;28;20024;-79
2023/10/25 06:14:31;;;;;;;2.45;1.63;;;;;;;;;;5010194;28;20390;-79
2023/10/25 06:16:57;;;;;;;3.15;1.45;;;;;;;;;;5010242;28;20083;-78
2023/10/25 06:19:22;;;;;;;9.70;2.03;;;;;;;;;;5027909;28;20033;-78
2023/10/25 06:21:48;;;;;;;6.53;2.28;;;;;;;;;;5027495;28;20086;-78
2023/10/25 06:24:13;;;;;;;3.53;2.00;;;;;;;;;;5010360;28;20116;-78
2023/10/25 06:26:38;;;;;;;5.25;1.90;;;;;;;;;;5009754;28;20053;-81
2023/10/25 06:29:04;;;;;;;2.92;1.55;;;;;;;;;;5025274;28;20547;-75
2023/10/25 06:31:29;;;;;;;6.18;3.42;;;;;;;;;;5023769;28;20033;-75
2023/10/25 06:33:54;;;;;;;4.85;2.15;;;;;;;;;;5027441;28;20049;-75
2023/10/25 06:36:20;;;;;;;3.25;1.85;;;;;;;;;;5000367;28;20029;-75
2023/10/25 06:38:46;;;;;;;2.92;1.80;;;;;;;;;;5009875;28;20017;-76
2023/10/25 06:41:16;;;;;;;5.20;2.10;;;;;;;;;;5027566;28;20041;-76
2023/10/25 06:43:41;;;;;;;4.22;1.90;;;;;;;;;;5024531;28;20100;-75
2023/10/25 06:46:08;;;;;;;2.95;1.40;;;;;;;;;;5023130;28;20065;-76
2023/10/25 06:48:34;;;;;;;2.90;1.20;;;;;;;;;;5010831;28;20530;-76
2023/10/25 06:50:59;;;;;;;2.45;1.70;;;;;;;;;;5028225;28;20017;-75
2023/10/25 06:53:25;;;;;;;3.90;1.90;;;;;;;;;;5026565;28;20651;-76
2023/10/25 06:55:50;;;;;;;3.58;1.60;;;;;;;;;;5027223;28;20037;-76
2023/10/25 06:58:16;;;;;;;5.13;1.63;;;;;;;;;;5026143;28;20038;-76
2023/10/25 07:00:42;;;;;;;3.08;1.45;;;;;;;;;;5024628;28;20083;-76
2023/10/25 07:03:10;;;;;;;3.05;1.55;;;;;;;;;;5027553;28;20396;-75
2023/10/25 07:05:36;;;;;;;3.03;1.58;;;;;;;;;;5027065;28;20041;-75
2023/10/25 07:08:02;;;;;;;3.53;1.50;;;;;;;;;;5008613;28;20037;-75
2023/10/25 07:10:28;;;;;;;2.13;1.42;;;;;;;;;;5027188;28;20033;-75
2023/10/25 07:12:54;;;;;;;1.75;1.40;;;;;;;;;;5026335;28;20041;-75
2023/10/25 07:15:19;;;;;;;3.65;1.80;;;;;;;;;;5026873;28;20087;-76
2023/10/25 07:17:45;;;;;;;4.85;2.00;;;;;;;;;;5009301;28;20099;-75
2023/10/25 07:20:11;;;;;;;2.30;1.60;;;;;;;;;;5007851;28;20041;-76
2023/10/25 07:22:38;;;;;;;3.42;1.77;;;;;;;;;;5028511;28;20041;-75
2023/10/25 07:25:04;;;;;;;4.80;1.50;;;;;;;;;;5016555;28;20225;-76
2023/10/25 07:27:30;;;;;;;2.83;1.42;;;;;;;;;;5024482;28;20029;-76
2023/10/25 07:29:55;;;;;;;2.97;1.58;;;;;;;;;;5017435;28;20064;-75
2023/10/25 07:32:20;;;;;;;2.63;1.77;;;;;;;;;;5026573;28;20026;-76
2023/10/25 07:34:46;;;;;;;2.17;1.42;;;;;;;;;;5023972;28;20088;-75
2023/10/25 07:37:11;;;;;;;2.85;1.50;;;;;;;;;;5026412;28;20578;-75
2023/10/25 07:39:37;;;;;;;4.63;2.10;;;;;;;;;;5026362;28;20022;-76
2023/10/25 07:42:03;;;;;;;5.35;2.33;;;;;;;;;;5009890;28;20095;-76
2023/10/25 07:44:28;;;;;;;6.28;1.90;;;;;;;;;;4988987;28;20084;-76
2023/10/25 07:46:54;;;;;;;3.17;1.98;;;;;;;;;;5005469;28;20034;-75
2023/10/25 07:49:19;;;;;;;2.53;1.55;;;;;;;;;;5006372;28;20147;-74
2023/10/25 07:51:44;;;;;;;3.15;1.30;;;;;;;;;;5004179;28;20034;-76
2023/10/25 07:54:10;;;;;;;4.05;1.83;;;;;;;;;;5007247;28;20037;-76
2023/10/25 07:56:35;;;;;;;4.63;1.67;;;;;;;;;;5006696;28;20573;-75
2023/10/25 07:59:01;;;;;;;2.75;1.15;;;;;;;;;;5021801;28;20045;-76
2023/10/25 08:01:27;;;;;;;2.83;1.35;;;;;;;;;;5025962;28;20044;-76
2023/10/25 08:03:52;;;;;;;4.70;1.85;;;;;;;;;;5024762;28;20029;-75
2023/10/25 08:06:17;;;;;;;2.63;1.50;;;;;;;;;;5025362;28;20524;-75
2023/10/25 08:08:43;;;;;;;3.58;1.83;;;;;;;;;;5024506;28;20044;-76
2023/10/25 08:11:08;;;;;;;2.55;1.60;;;;;;;;;;5025188;28;20168;-75
2023/10/25 08:13:35;;;;;;;2.25;1.55;;;;;;;;;;5025292;28;20704;-76
2023/10/25 08:16:02;;;;;;;3.42;1.80;;;;;;;;;;5025137;28;20037;-75
2023/10/25 08:18:29;;;;;;;5.13;1.80;;;;;;;;;;5024959;28;20030;-76
2023/10/25 08:20:55;;;;;;;3.75;1.92;;;;;;;;;;5024850;28;20048;-75
2023/10/25 08:23:21;;;;;;;4.00;1.10;;;;;;;;;;5024757;28;20042;-76
2023/10/25 08:25:46;;;;;;;3.85;1.70;;;;;;;;;;5025807;28;20037;-76
2023/10/25 08:28:12;;;;;;;2.45;1.73;;;;;;;;;;5008172;28;20025;-76
2023/10/25 08:30:37;;;;;;;3.50;2.10;;;;;;;;;;5009435;28;20033;-75
2023/10/25 08:33:02;;;;;;;3.60;1.75;;;;;;;;;;5009140;28;20158;-75
2023/10/25 08:35:28;;;;;;;3.92;1.92;;;;;;;;;;5008313;28;20069;-76
2023/10/25 08:37:53;;;;;;;2.72;1.90;;;;;;;;;;5015051;28;21576;-75
2023/10/25 08:40:19;;;;;;;4.55;1.90;;;;;;;;;;5002477;28;20358;-75
2023/10/25 08:42:45;;;;;;;2.50;1.98;;;;;;;;;;5010629;28;21004;-76
2023/10/25 08:45:10;;;;;;;2.90;1.90;;;;;;;;;;5008089;28;20033;-76
2023/10/25 08:47:37;;;;;;;3.50;2.10;;;;;;;;;;5011802;28;20034;-76
2023/10/25 08:50:04;;;;;;;4.20;1.95;;;;;;;;;;5018844;28;20397;-75
2023/10/25 08:52:29;;;;;;;3.80;1.98;;;;;;;;;;5016172;28;20026;-76
2023/10/25 08:54:55;;;;;;;3.20;2.10;;;;;;;;;;5002018;28;21721;-76
2023/10/25 08:57:21;;;;;;;3.15;1.90;;;;;;;;;;5003662;28;20088;-76
2023/10/25 08:59:47;;;;;;;3.65;2.08;;;;;;;;;;5024882;28;20036;-76
2023/10/25 09:02:13;;;;;;;7.28;4.15;;;;;;;;;;5024160;28;20033;-76
2023/10/25 09:04:58;;;;;;;3.50;2.30;;;;;;;;;;5022553;28;20082;-76
2023/10/25 09:07:30;;;;;;;3.38;2.28;;;;;;;;;;5023185;28;20037;-74
2023/10/25 09:09:56;;;;;;;3.33;2.30;;;;;;;;;;4999150;28;20037;-76
2023/10/25 09:12:22;;;;;;;3.65;2.53;;;;;;;;;;5021374;28;20598;-75
2023/10/25 09:14:48;;;;;;;4.90;3.05;;;;;;;;;;5024763;28;20017;-75
2023/10/25 09:17:13;;;;;;;4.75;3.08;;;;;;;;;;5006680;28;20048;-75
2023/10/25 09:19:47;;;;;;;6.43;3.65;;;;;;;;;;5021284;28;20044;-75
2023/10/25 09:22:38;;;;;;;;;;;;;;;;;;5004671;28;20041;-75
2023/10/25 09:25:05;;;;;;;4.50;2.78;;;;;;;;;;5021273;28;19928;-75
2023/10/25 09:27:32;;;;;;;3.13;2.00;;;;;;;;;;5003648;28;20036;-75
2023/10/25 09:30:14;;;;;;;4.95;2.40;;;;;;;;;;5024477;28;20056;-75
2023/10/25 09:32:40;;;;;;;5.43;3.00;;;;;;;;;;5023026;28;20022;-75
2023/10/25 09:35:06;;;;;;;5.35;2.88;;;;;;;;;;5020229;28;20110;-75
2023/10/25 09:37:31;;;;;;;9.13;4.15;;;;;;;;;;5014769;28;20038;-75
2023/10/25 09:39:57;;;;;;;7.05;4.25;;;;;;;;;;5004075;28;20036;-75
2023/10/25 09:42:25;;;;;;;6.03;3.63;;;;;;;;;;5003188;28;20041;-75
2023/10/25 09:44:57;;;;;;;5.22;3.28;;;;;;;;;;5004547;28;20171;-75
2023/10/25 09:47:29;;;;;;;4.72;2.75;;;;;;;;;;4986279;28;20057;-75
2023/10/25 09:50:08;;;;;;;5.35;2.90;;;;;;;;;;5003139;28;20029;-75
2023/10/25 09:52:37;;;;;;;4.47;2.78;;;;;;;;;;5002161;28;20034;-75
2023/10/25 09:55:10;;;;;;;5.03;3.08;;;;;;;;;;5004192;28;20029;-75
2023/10/25 09:57:36;;;;;;;4.85;2.80;;;;;;;;;;5007838;28;20420;-75
2023/10/25 10:00:05;;;;;;;4.05;2.75;;;;;;;;;;5024117;28;20494;-75
2023/10/25 10:02:44;;;;;;;8.15;3.40;;;;;;;;;;5023080;28;20092;-75
2023/10/25 10:05:21;;;;;;;6.80;3.03;;;;;;;;;;5025650;28;20044;-75
2023/10/25 10:08:11;;;;;;;4.95;2.72;;;;;;;;;;5039068;28;20107;-75
2023/10/25 10:10:48;;;;;;;4.55;2.90;;;;;;;;;;5031220;28;20068;-75
2023/10/25 10:13:15;;;;;;;5.03;3.10;;;;;;;;;;5026373;28;20049;-75
2023/10/25 10:16:11;;;;;;;6.07;3.22;;;;;;;;;;5007251;28;20030;-74
2023/10/25 10:18:45;;;;;;;7.13;3.47;;;;;;;;;;5006320;28;20017;-75
2023/10/25 10:21:13;;;;;;;10.73;4.13;;;;;;;;;;5024244;28;20080;-74
2023/10/25 10:23:40;;;;;;;8.23;3.90;;;;;;;;;;5023326;28;20037;-75
2023/10/25 10:26:07;;;;;;;8.73;4.40;;;;;;;;;;5023631;28;20042;-75
2023/10/25 10:28:46;;;;;;;6.13;3.60;;;;;;;;;;5005306;28;20029;-75
2023/10/25 10:31:13;;;;;;;4.85;2.90;;;;;;;;;;5005308;28;20550;-75
2023/10/25 10:33:45;;;;;;;4.03;3.03;;;;;;;;;;5001865;28;20030;-75
2023/10/25 10:36:23;;;;;;;5.03;2.70;;;;;;;;;;5010835;28;20030;-75
2023/10/25 10:39:17;;;;;;;4.20;2.53;;;;;;;;;;5003493;28;20045;-74
2023/10/25 10:41:43;;;;;;;3.42;2.40;;;;;;;;;;5004277;28;20124;-75
2023/10/25 10:44:11;;;;;;;4.20;2.70;;;;;;;;;;5003232;28;20033;-75
2023/10/25 10:46:58;;;;;;;5.50;2.22;;;;;;;;;;5003497;28;20038;-75
2023/10/25 10:49:29;;;;;;;9.70;2.80;;;;;;;;;;5001543;28;20049;-75
2023/10/25 10:51:55;;;;;;;3.00;2.03;;;;;;;;;;5012220;28;20037;-75
2023/10/25 10:54:20;;;;;;;7.07;3.38;;;;;;;;;;5007759;28;20044;-74
2023/10/25 10:56:46;;;;;;;6.13;4.05;;;;;;;;;;5009385;28;20514;-75
2023/10/25 10:59:12;;;;;;;6.72;3.10;;;;;;;;;;5026765;28;20096;-75
2023/10/25 11:01:37;;;;;;;7.22;3.80;;;;;;;;;;5026945;28;20029;-75
2023/10/25 11:04:02;;;;;;;6.85;3.95;;;;;;;;;;5026814;28;20025;-75
2023/10/25 11:06:28;;;;;;;6.88;4.38;;;;;;;;;;5024560;28;20033;-75
2023/10/25 11:08:53;;;;;;;7.82;4.07;;;;;;;;;;5026196;28;20040;-75
2023/10/25 11:11:20;;;;;;;9.07;3.88;;;;;;;;;;5026123;28;20755;-75
2023/10/25 11:13:46;;;;;;;7.78;4.65;;;;;;;;;;5026553;28;20393;-75
2023/10/25 11:16:12;;;;;;;10.65;4.40;;;;;;;;;;5008517;28;20088;-74
2023/10/25 11:18:38;;;;;;;7.95;4.30;;;;;;;;;;5019114;28;20029;-75
2023/10/25 11:21:03;;;;;;;9.25;5.05;;;;;;;;;;5008153;28;20026;-75
2023/10/25 11:23:29;;;;;;;9.35;3.75;;;;;;;;;;5007045;28;20038;-75
2023/10/25 11:25:54;;;;;;;6.25;3.78;;;;;;;;;;5014647;28;20048;-75
2023/10/25 11:28:20;;;;;;;5.90;3.60;;;;;;;;;;5016230;28;20038;-75
2023/10/25 11:30:48;;;;;;;7.90;3.70;;;;;;;;;;4997898;28;20564;-75
2023/10/25 11:33:15;;;;;;;6.97;3.95;;;;;;;;;;5005792;28;20025;-75
2023/10/25 11:35:42;;;;;;;4.97;3.13;;;;;;;;;;5004664;28;20044;-75
2023/10/25 11:38:09;;;;;;;7.00;4.03;;;;;;;;;;5005168;28;20037;-75
2023/10/25 11:40:46;;;;;;;8.25;4.03;;;;;;;;;;5003882;28;20081;-75
2023/10/25 11:43:13;;;;;;;8.35;4.22;;;;;;;;;;5006437;28;20598;-75
2023/10/25 11:45:39;;;;;;;4.95;3.42;;;;;;;;;;5007894;28;20040;-75
2023/10/25 11:48:06;;;;;;;6.88;3.75;;;;;;;;;;5025522;28;20052;-74
2023/10/25 11:50:32;;;;;;;7.30;3.70;;;;;;;;;;5011319;28;20060;-74
2023/10/25 11:53:00;;;;;;;4.68;3.55;;;;;;;;;;5006228;28;20033;-74
2023/10/25 11:55:27;;;;;;;5.85;3.42;;;;;;;;;;5005867;28;20525;-75
2023/10/25 11:57:53;;;;;;;5.90;3.45;;;;;;;;;;5012382;28;20072;-75
2023/10/25 12:00:18;;;;;;;5.55;3.72;;;;;;;;;;5022983;28;20037;-74
2023/10/25 12:02:44;;;;;;;5.90;3.47;;;;;;;;;;5006075;28;20046;-75
2023/10/25 12:05:10;;;;;;;8.90;3.60;;;;;;;;;;5004893;28;20043;-74
2023/10/25 12:07:35;;;;;;;6.43;3.60;;;;;;;;;;4989458;28;20041;-74
2023/10/25 12:10:01;;;;;;;7.15;3.45;;;;;;;;;;5015503;28;20044;-75
2023/10/25 12:12:26;;;;;;;6.00;3.33;;;;;;;;;;5025411;28;20559;-74
2023/10/25 12:14:52;;;;;;;7.00;3.70;;;;;;;;;;5025758;28;20033;-75
2023/10/25 12:17:18;;;;;;;5.22;3.05;;;;;;;;;;5025394;28;20508;-74
2023/10/25 12:19:44;;;;;;;4.50;2.85;;;;;;;;;;5025321;28;20048;-75
2023/10/25 12:22:12;;;;;;;5.30;3.10;;;;;;;;;;5025340;28;20048;-75
2023/10/25 12:24:39;;;;;;;4.53;3.03;;;;;;;;;;5025695;28;20131;-75
2023/10/25 12:27:07;;;;;;;4.82;3.10;;;;;;;;;;5025804;28;20036;-75
2023/10/25 12:29:32;;;;;;;4.45;3.05;;;;;;;;;;5025418;28;20037;-75
2023/10/25 12:31:58;;;;;;;5.88;3.20;;;;;;;;;;5007023;28;20464;-75
2023/10/25 12:34:23;;;;;;;4.97;3.38;;;;;;;;;;5023720;28;20033;-75
2023/10/25 12:36:49;;;;;;;7.40;4.10;;;;;;;;;;5007402;28;20519;-75
2023/10/25 12:39:16;;;;;;;5.30;3.30;;;;;;;;;;5024416;28;20048;-75
2023/10/25 12:41:42;;;;;;;7.47;4.18;;;;;;;;;;5024081;28;20588;-75
2023/10/25 12:44:11;;;;;;;9.43;3.80;;;;;;;;;;5027305;28;20034;-75
2023/10/25 12:46:38;;;;;;;6.78;3.47;;;;;;;;;;5025071;28;20318;-74
2023/10/25 12:49:03;;;;;;;7.25;3.38;;;;;;;;;;5041175;28;20564;-75
2023/10/25 12:51:30;;;;;;;7.60;4.03;;;;;;;;;;5028817;28;20105;-75
2023/10/25 12:53:55;;;;;;;10.48;4.00;;;;;;;;;;5026387;28;20025;-75
2023/10/25 12:56:21;;;;;;;7.65;3.95;;;;;;;;;;5007259;28;20421;-75
2023/10/25 12:58:46;;;;;;;6.75;3.58;;;;;;;;;;5025138;28;20580;-74
2023/10/25 13:01:11;;;;;;;9.55;4.47;;;;;;;;;;5023279;28;20350;-75
2023/10/25 13:03:37;;;;;;;7.88;3.88;;;;;;;;;;5024568;28;20112;-75
2023/10/25 13:06:06;;;;;;;9.45;4.45;;;;;;;;;;5022858;28;20026;-74
2023/10/25 13:08:31;;;;;;;10.90;4.65;;;;;;;;;;5023695;28;20563;-74
2023/10/25 13:10:56;;;;;;;8.20;4.22;;;;;;;;;;5024310;28;20091;-74
2023/10/25 13:13:22;;;;;;;10.23;4.22;;;;;;;;;;5022730;28;20091;-75
2023/10/25 13:15:48;;;;;;;7.50;4.10;;;;;;;;;;5021492;28;20583;-74
2023/10/25 13:18:14;;;;;;;8.23;4.05;;;;;;;;;;5023980;28;20091;-75
2023/10/25 13:20:40;;;;;;;10.30;4.43;;;;;;;;;;5024008;28;20128;-74
2023/10/25 13:23:05;;;;;;;9.98;4.28;;;;;;;;;;5005656;28;20125;-73
2023/10/25 13:25:30;;;;;;;10.60;4.72;;;;;;;;;;5024384;28;20424;-75
2023/10/25 13:27:56;;;;;;;9.95;4.22;;;;;;;;;;5020681;28;20107;-75
2023/10/25 13:30:21;;;;;;;10.63;4.53;;;;;;;;;;5021384;28;20493;-75
2023/10/25 13:32:47;;;;;;;9.50;3.78;;;;;;;;;;5024471;28;20477;-75
2023/10/25 13:35:12;;;;;;;11.07;4.28;;;;;;;;;;5023997;28;20038;-75
2023/10/25 13:37:39;;;;;;;8.18;3.65;;;;;;;;;;5023709;28;20132;-75
2023/10/25 13:40:06;;;;;;;8.77;3.83;;;;;;;;;;5024196;28;20037;-75
2023/10/25 13:42:31;;;;;;;9.20;4.30;;;;;;;;;;5024606;28;20033;-75
2023/10/25 13:44:57;;;;;;;10.25;4.18;;;;;;;;;;5004121;28;20504;-75
2023/10/25 13:47:22;;;;;;;10.43;3.17;;;;;;;;;;5023918;28;20033;-73
2023/10/25 13:49:48;;;;;;;7.00;3.22;;;;;;;;;;5024715;28;20049;-74
2023/10/25 13:52:13;;;;;;;4.22;2.88;;;;;;;;;;5023801;28;20026;-75
2023/10/25 13:54:38;;;;;;;5.00;2.90;;;;;;;;;;5024695;28;20220;-75
2023/10/25 13:57:04;;;;;;;5.13;3.10;;;;;;;;;;5024558;28;20195;-74
2023/10/25 13:59:29;;;;;;;5.30;2.70;;;;;;;;;;5004513;28;20116;-74
2023/10/25 14:01:55;;;;;;;4.30;2.70;;;;;;;;;;5005083;28;20061;-75
2023/10/25 14:04:20;;;;;;;4.45;2.72;;;;;;;;;;5007402;28;20108;-74
2023/10/25 14:06:46;;;;;;;4.05;2.80;;;;;;;;;;5019554;28;20072;-75
2023/10/25 14:09:11;;;;;;;5.15;3.00;;;;;;;;;;5028892;28;20040;-75
2023/10/25 14:11:37;;;;;;;7.57;3.05;;;;;;;;;;5009681;28;20057;-74
2023/10/25 14:14:03;;;;;;;4.60;2.40;;;;;;;;;;5014566;28;20057;-74
2023/10/25 14:16:29;;;;;;;4.80;2.78;;;;;;;;;;5008802;28;20080;-73
2023/10/25 14:18:54;;;;;;;4.10;2.30;;;;;;;;;;5016970;28;20069;-73
2023/10/25 14:21:20;;;;;;;8.18;2.60;;;;;;;;;;5023399;28;20061;-74
2023/10/25 14:23:46;;;;;;;6.90;2.90;;;;;;;;;;5022883;28;20029;-74
2023/10/25 14:26:11;;;;;;;5.47;2.85;;;;;;;;;;5006552;28;20545;-74
2023/10/25 14:28:37;;;;;;;4.93;3.00;;;;;;;;;;5006062;28;20037;-74
2023/10/25 14:31:03;;;;;;;5.82;3.03;;;;;;;;;;5026500;28;20412;-74
2023/10/25 14:33:29;;;;;;;5.03;3.22;;;;;;;;;;5026690;28;20103;-74
2023/10/25 14:35:56;;;;;;;5.35;2.97;;;;;;;;;;5009851;28;20781;-74
2023/10/25 14:38:22;;;;;;;7.55;3.33;;;;;;;;;;5027531;28;20127;-74
2023/10/25 14:40:47;;;;;;;5.38;3.22;;;;;;;;;;5017568;28;20041;-74